Time;durP1;ratioP1;P1;durP2;ratioP2;P2;SDS_P1;SDS_P2;PMS_P1;PMS_P2;Temp;Humidity;BMP_temperature;BMP_pressure;BME280_temperature;BME280_humidity;BME280_pressure;Samples;Min_cycle;Max_cycle;Signal;HPM_P1;HPM_P2
2023/01/18 00:00:27;;;;;;;12.10;8.20;;;2.60;75.40;;;5.11;55.45;98941.66;4722105;30;20197;-51
2023/01/18 00:02:54;;;;;;;10.90;8.30;;;2.60;75.60;;;5.05;55.61;98939.81;4737536;30;20245;-54
2023/01/18 00:05:22;;;;;;;10.80;7.87;;;2.60;75.70;;;5.05;56.04;98939.81;4736788;30;20207;-52
2023/01/18 00:07:49;;;;;;;11.60;8.37;;;2.60;75.80;;;5.04;55.75;98946.00;4737479;30;20288;-51
2023/01/18 00:10:16;;;;;;;11.90;8.37;;;2.60;76.00;;;5.02;55.57;98950.59;4737607;30;20721;-54
2023/01/18 00:12:45;;;;;;;14.73;8.63;;;2.60;76.00;;;4.98;55.43;98949.34;4737481;30;20652;-54
2023/01/18 00:15:12;;;;;;;12.27;8.10;;;2.50;76.00;;;4.99;56.35;98948.34;4737283;30;20229;-51
2023/01/18 00:17:51;;;;;;;11.97;8.57;;;2.50;75.90;;;5.02;55.18;98952.38;4737460;30;20696;-52
2023/01/18 00:20:21;;;;;;;14.97;8.37;;;2.50;76.00;;;5.02;55.55;98957.59;4737551;30;20213;-54
2023/01/18 00:22:50;;;;;;;13.57;9.10;;;2.50;76.10;;;4.98;55.95;98962.41;4736371;30;20668;-53
2023/01/18 00:25:19;;;;;;;11.93;9.30;;;2.50;76.10;;;4.98;56.13;98964.19;4736757;30;20206;-53
2023/01/18 00:27:50;;;;;;;15.17;9.70;;;2.50;76.10;;;4.91;56.45;98961.50;4736325;30;20709;-53
2023/01/18 00:30:20;;;;;;;14.10;9.53;;;2.50;76.20;;;4.89;55.52;98963.50;4737505;30;20693;-52
2023/01/18 00:32:48;;;;;;;10.60;8.93;;;2.50;76.20;;;4.92;55.81;98962.31;4737117;30;20222;-50
2023/01/18 00:35:16;;;;;;;14.27;9.73;;;2.50;76.20;;;4.93;56.18;98964.72;4721246;30;20222;-50
2023/01/18 00:37:44;;;;;;;12.30;10.13;;;2.50;76.20;;;4.96;55.77;98959.16;4736582;30;20739;-52
2023/01/18 00:40:11;;;;;;;13.07;9.60;;;2.50;76.10;;;4.96;55.72;98969.59;4735893;30;20230;-51
2023/01/18 00:45:25;;;;;;;12.60;9.70;;;2.50;76.30;;;4.95;55.90;98972.34;4739581;30;20279;-55
2023/01/18 00:47:52;;;;;;;12.20;9.50;;;2.50;76.20;;;4.93;55.78;98969.94;4735838;30;20287;-54
2023/01/18 00:50:21;;;;;;;16.43;9.73;;;2.50;76.40;;;4.92;56.16;98968.31;4739144;30;20560;-52
2023/01/18 00:52:49;;;;;;;13.83;10.27;;;2.40;76.30;;;4.96;56.31;98968.78;4737358;30;20203;-54
2023/01/18 00:55:16;;;;;;;13.67;9.77;;;2.40;76.30;;;4.95;55.97;98973.19;4736411;30;20669;-52
2023/01/18 00:57:45;;;;;;;15.17;10.10;;;2.40;76.30;;;4.96;56.55;98967.00;4736025;30;20227;-52
2023/01/18 01:00:15;;;;;;;12.40;9.20;;;2.40;76.30;;;4.99;56.17;98964.00;4742414;30;20229;-55
2023/01/18 01:02:44;;;;;;;17.07;10.80;;;2.40;76.30;;;5.00;56.26;98960.41;4736494;30;20221;-53
2023/01/18 01:08:05;;;;;;;11.47;9.87;;;2.40;76.40;;;4.92;55.64;98957.88;4736850;30;20230;-52
2023/01/18 01:10:32;;;;;;;16.23;10.27;;;2.40;76.40;;;4.92;56.56;98957.88;4734267;30;20653;-54
2023/01/18 01:26:49;;;;;;;12.40;9.93;;;2.40;76.50;;;4.76;56.02;98976.34;4735960;30;20183;-53
2023/01/18 01:29:16;;;;;;;15.80;10.30;;;2.40;76.60;;;4.76;56.01;98979.75;4736438;30;20227;-54
2023/01/18 01:31:43;;;;;;;13.57;9.97;;;2.40;76.70;;;4.76;56.52;98974.56;4736805;30;20230;-52
2023/01/18 01:34:12;;;;;;;16.47;10.30;;;2.30;76.60;;;4.83;55.85;98979.84;4736901;30;20205;-51
2023/01/18 01:36:39;;;;;;;13.73;9.97;;;2.40;76.60;;;4.85;56.78;98983.06;4736502;30;20201;-53
2023/01/18 01:39:08;;;;;;;13.93;9.90;;;2.30;76.50;;;4.86;56.38;98979.47;4735671;30;20759;-51
2023/01/18 01:41:35;;;;;;;11.03;9.40;;;2.40;76.50;;;4.90;55.99;98977.34;4735984;30;20674;-52
2023/01/18 01:44:42;;;;;;;11.17;9.23;;;2.30;76.40;;;4.85;56.22;98988.28;4735412;30;20223;-52
2023/01/18 01:47:18;;;;;;;12.43;10.40;;;2.30;76.40;;;4.81;55.85;98981.81;4731375;30;20197;-53
2023/01/18 01:49:56;;;;;;;12.63;9.07;;;2.30;76.40;;;4.79;55.96;98983.81;4735172;30;20236;-53
2023/01/18 01:52:34;;;;;;;13.80;9.60;;;2.30;76.40;;;4.74;56.20;98980.94;4735209;30;20284;-54
2023/01/18 01:55:10;;;;;;;12.50;9.60;;;2.30;76.50;;;4.73;56.92;98984.53;4735254;30;20636;-52
2023/01/18 01:57:44;;;;;;;13.50;10.07;;;2.30;76.40;;;4.65;56.67;98990.66;4730019;30;20727;-53
2023/01/18 02:00:15;;;;;;;13.03;9.53;;;2.30;76.50;;;4.67;56.85;98985.25;4735856;30;20228;-52
2023/01/18 02:02:45;;;;;;;13.87;9.73;;;2.20;76.30;;;4.74;56.84;98988.75;4734885;30;20201;-52
2023/01/18 02:05:16;;;;;;;11.77;9.50;;;2.20;76.20;;;4.72;55.55;98988.13;4735868;30;20195;-52
2023/01/18 02:07:44;;;;;;;15.27;9.67;;;2.20;76.40;;;4.74;55.67;98991.34;4740509;30;20305;-54
2023/01/18 02:10:11;;;;;;;12.27;9.73;;;2.20;76.40;;;4.76;55.54;98984.16;4746289;30;20241;-52
2023/01/18 02:12:43;;;;;;;13.70;9.80;;;2.30;76.50;;;4.72;55.60;98988.94;4742127;30;20218;-54
2023/01/18 02:15:10;;;;;;;13.37;10.07;;;2.20;76.30;;;4.64;56.54;98975.19;4749236;30;20197;-54
2023/01/18 02:18:04;;;;;;;14.20;8.50;;;2.20;76.30;;;4.64;55.85;98986.41;4747991;30;20227;-54
2023/01/18 02:21:13;;;;;;;11.77;9.57;;;2.20;76.20;;;4.61;56.39;98981.56;4749693;30;20200;-55
2023/01/18 02:24:43;;;;;;;12.97;9.43;;;2.20;76.30;;;4.62;55.85;98987.56;4731781;30;20281;-55
2023/01/18 02:27:21;;;;;;;11.63;8.70;;;2.20;76.20;;;4.63;56.04;98990.03;4695884;30;20224;-55
2023/01/18 02:30:14;;;;;;;12.93;9.50;;;2.20;76.20;;;4.66;56.22;98987.03;4697281;30;20228;-52
2023/01/18 02:33:04;;;;;;;15.93;9.93;;;2.20;76.40;;;4.63;55.61;98990.03;4735503;30;20225;-52
2023/01/18 02:35:46;;;;;;;13.80;9.97;;;2.20;76.50;;;4.60;56.80;98990.38;4738441;30;20274;-54
2023/01/18 02:38:19;;;;;;;14.17;9.07;;;2.20;76.40;;;4.66;56.54;98988.81;4745961;30;20266;-55
2023/01/18 02:41:05;;;;;;;11.10;8.93;;;2.20;76.40;;;4.71;56.38;98981.28;4749113;30;20239;-55
2023/01/18 02:46:30;;;;;;;14.63;9.60;;;2.20;76.50;;;4.69;56.49;98983.25;4748186;30;20621;-52
2023/01/18 02:48:59;;;;;;;16.17;9.40;;;2.20;76.40;;;4.68;56.65;98989.47;4749212;30;20247;-54
2023/01/18 02:51:26;;;;;;;13.80;9.03;;;2.20;76.30;;;4.63;56.38;98990.03;4748666;30;20227;-57
2023/01/18 02:53:53;;;;;;;15.83;9.87;;;2.20;76.20;;;4.59;56.73;98995.75;4745756;30;20285;-54
2023/01/18 02:56:24;;;;;;;15.40;9.73;;;2.10;76.50;;;4.53;56.36;98999.06;4740710;30;20289;-54
2023/01/18 02:58:58;;;;;;;13.17;9.47;;;2.10;76.30;;;4.48;56.08;99006.63;4724813;30;20309;-54
2023/01/18 03:01:33;;;;;;;14.30;10.13;;;2.10;76.40;;;4.50;56.26;99010.66;4724174;30;20211;-53
2023/01/18 03:04:11;;;;;;;15.57;10.03;;;2.10;76.30;;;4.42;56.75;99008.13;4733057;30;20193;-52
2023/01/18 03:06:43;;;;;;;13.60;10.17;;;2.10;76.50;;;4.32;57.40;99001.56;4736195;30;20182;-52
2023/01/18 03:09:17;;;;;;;11.20;9.33;;;2.00;76.40;;;4.35;56.51;98998.63;4753215;30;20241;-52
2023/01/18 03:11:56;;;;;;;11.23;9.80;;;2.00;76.50;;;4.38;56.27;98996.47;4754540;30;20230;-54
2023/01/18 03:14:38;;;;;;;12.80;9.57;;;2.00;76.50;;;4.40;56.61;99004.91;4746892;30;20229;-58
2023/01/18 03:17:17;;;;;;;13.77;10.33;;;2.00;76.70;;;4.46;56.36;99003.38;4747651;30;20237;-53
2023/01/18 03:25:29;;;;;;;14.20;9.53;;;2.00;76.90;;;4.45;56.93;99009.56;4749349;30;20213;-52
2023/01/18 03:33:46;;;;;;;13.40;10.53;;;2.00;76.90;;;4.36;56.79;99018.44;4749228;30;20195;-54
2023/01/18 03:36:24;;;;;;;12.77;10.43;;;2.00;76.80;;;4.43;57.23;99014.97;4750350;30;20206;-53
2023/01/18 03:38:59;;;;;;;14.03;9.70;;;2.00;77.00;;;4.55;57.22;99017.94;4742994;30;20785;-54
2023/01/18 03:41:35;;;;;;;11.77;9.53;;;2.00;77.20;;;4.65;56.23;99021.09;4740491;30;20692;-52
2023/01/18 03:44:10;;;;;;;12.40;9.67;;;2.00;77.10;;;4.73;56.49;99015.81;4740432;30;20259;-52
2023/01/18 03:46:39;;;;;;;11.83;9.37;;;2.00;76.90;;;4.84;56.70;99023.16;4738113;30;20265;-52
2023/01/18 03:49:09;;;;;;;12.03;9.43;;;2.10;77.00;;;4.97;55.80;99022.53;4719216;30;20224;-53
2023/01/18 03:52:00;;;;;;;13.33;9.50;;;2.10;77.00;;;5.01;54.90;99013.34;4722938;30;20223;-52
2023/01/18 03:54:35;;;;;;;13.80;9.47;;;2.20;76.80;;;5.06;55.42;99019.66;4737056;30;20221;-52
2023/01/18 03:57:31;;;;;;;12.87;8.53;;;2.30;76.60;;;5.10;55.58;99023.50;4732985;30;20233;-52
2023/01/18 04:00:00;;;;;;;11.80;8.67;;;2.30;76.90;;;5.21;55.22;99014.38;4737808;30;20348;-53
2023/01/18 04:02:27;;;;;;;11.53;8.77;;;2.40;76.70;;;5.27;54.74;99030.13;4737793;30;20203;-51
2023/01/18 04:04:57;;;;;;;11.80;9.37;;;2.40;76.10;;;5.31;54.29;99020.94;4736945;30;20253;-52
2023/01/18 04:07:24;;;;;;;10.27;8.40;;;2.50;76.10;;;5.34;54.21;99024.97;4737427;30;20252;-53
2023/01/18 04:09:52;;;;;;;11.97;10.03;;;2.50;75.70;;;5.30;54.38;99029.75;4737409;30;20588;-52
2023/01/18 04:12:19;;;;;;;11.23;9.87;;;2.50;75.30;;;5.25;54.35;99045.13;4736694;30;20600;-53
2023/01/18 04:14:46;;;;;;;11.50;10.07;;;2.50;75.00;;;5.19;54.71;99048.47;4736686;30;20260;-54
2023/01/18 04:17:13;;;;;;;13.10;9.63;;;2.50;74.60;;;5.07;54.87;99044.72;4737026;30;20260;-55
2023/01/18 04:19:40;;;;;;;13.07;11.17;;;2.40;74.40;;;4.92;54.65;99043.91;4736623;30;20237;-53
2023/01/18 04:22:09;;;;;;;12.07;10.03;;;2.40;74.40;;;4.86;54.63;99042.03;4737454;30;20199;-52
2023/01/18 04:24:36;;;;;;;13.63;9.73;;;2.40;74.60;;;4.84;54.60;99043.19;4739431;30;20202;-51
2023/01/18 04:27:03;;;;;;;14.53;10.37;;;2.30;74.50;;;4.79;54.83;99046.34;4724005;30;20275;-51
2023/01/18 04:29:30;;;;;;;15.57;10.97;;;2.30;74.70;;;4.69;55.20;99058.81;4737408;30;20203;-52
2023/01/18 04:31:57;;;;;;;11.73;9.57;;;2.20;74.90;;;4.60;54.65;99062.50;4736766;30;20226;-51
2023/01/18 04:34:24;;;;;;;12.73;9.70;;;2.20;75.00;;;4.53;55.24;99056.38;4736885;30;20199;-52
2023/01/18 04:36:52;;;;;;;15.80;9.90;;;2.10;75.10;;;4.52;55.12;99054.75;4737750;30;20209;-54
2023/01/18 04:39:20;;;;;;;14.87;10.43;;;2.10;75.20;;;4.42;55.72;99060.22;4736713;30;20585;-50
2023/01/18 04:41:48;;;;;;;11.63;9.53;;;2.00;75.50;;;4.40;55.95;99053.56;4735081;30;20214;-51
2023/01/18 04:44:15;;;;;;;14.60;9.30;;;2.00;75.70;;;4.44;55.98;99054.84;4734485;30;20203;-52
2023/01/18 04:46:42;;;;;;;14.53;9.80;;;1.90;75.80;;;4.47;56.38;99041.47;4735181;30;20243;-53
2023/01/18 04:49:14;;;;;;;11.93;9.43;;;1.90;76.30;;;4.44;56.12;99047.84;4739295;30;20295;-52
2023/01/18 04:51:42;;;;;;;15.77;10.50;;;1.90;76.10;;;4.39;56.40;99044.97;4737664;30;20237;-52
2023/01/18 04:54:11;;;;;;;14.60;11.17;;;1.90;76.10;;;4.42;56.13;99051.63;4719592;30;20226;-51
2023/01/18 04:56:39;;;;;;;15.07;11.07;;;1.90;76.20;;;4.43;56.40;99050.59;4734854;30;20205;-53
2023/01/18 04:59:06;;;;;;;16.43;11.03;;;1.90;76.20;;;4.45;56.64;99059.03;4736143;30;20226;-53
2023/01/18 05:01:34;;;;;;;16.23;11.30;;;1.90;76.10;;;4.41;55.49;99061.22;4736764;30;20199;-53
2023/01/18 05:04:02;;;;;;;12.03;10.30;;;1.90;76.30;;;4.37;56.36;99048.72;4736304;30;20242;-54
2023/01/18 05:06:29;;;;;;;13.23;10.43;;;1.90;76.20;;;4.37;56.36;99051.34;4735964;30;20606;-52
2023/01/18 05:08:56;;;;;;;13.63;11.00;;;1.90;76.30;;;4.39;56.60;99054.56;4736382;30;20287;-52
2023/01/18 05:11:23;;;;;;;13.00;10.20;;;1.80;76.20;;;4.41;55.48;99056.00;4735243;30;20244;-54
2023/01/18 05:13:51;;;;;;;15.27;10.40;;;1.90;76.30;;;4.43;56.48;99050.59;4736285;30;20209;-52
2023/01/18 05:16:22;;;;;;;13.10;10.97;;;1.90;76.40;;;4.44;55.77;99065.25;4735672;30;20199;-53
2023/01/18 05:18:49;;;;;;;14.03;9.67;;;1.90;76.40;;;4.48;56.72;99062.13;4735420;30;20245;-53
2023/01/18 05:21:16;;;;;;;11.93;10.07;;;1.90;76.60;;;4.55;56.31;99070.03;4735817;30;20229;-52
2023/01/18 05:23:43;;;;;;;14.67;10.67;;;1.90;76.60;;;4.59;56.20;99066.06;4736128;30;20202;-52
2023/01/18 05:26:16;;;;;;;15.00;10.57;;;1.90;76.40;;;4.65;56.01;99070.59;4736239;30;20208;-53
2023/01/18 05:28:44;;;;;;;16.37;10.27;;;2.00;76.60;;;4.71;55.60;99062.88;4735948;30;20564;-53
2023/01/18 05:31:14;;;;;;;13.10;10.40;;;2.00;76.50;;;4.67;55.73;99060.78;4735752;30;20207;-52
2023/01/18 05:33:41;;;;;;;14.70;11.73;;;2.00;75.80;;;4.62;55.03;99063.94;4736392;30;20575;-52
2023/01/18 05:36:08;;;;;;;13.30;10.37;;;2.10;75.60;;;4.62;54.87;99070.94;4735556;30;20206;-51
2023/01/18 05:38:35;;;;;;;13.47;10.80;;;2.10;75.60;;;4.64;55.34;99079.38;4735722;30;20671;-52
2023/01/18 05:41:03;;;;;;;12.77;9.27;;;2.10;75.50;;;4.67;55.11;99081.63;4736104;30;20569;-51
2023/01/18 05:43:30;;;;;;;13.63;10.10;;;2.10;75.60;;;4.74;56.15;99085.16;4736051;30;20286;-52
2023/01/18 05:45:58;;;;;;;14.47;10.40;;;2.10;76.00;;;4.82;54.86;99083.25;4735578;30;20215;-54
2023/01/18 05:48:26;;;;;;;14.57;10.23;;;2.10;76.10;;;4.91;55.44;99086.59;4719891;30;20370;-52
2023/01/18 05:50:53;;;;;;;11.23;9.33;;;2.20;76.60;;;5.01;55.74;99092.38;4736161;30;20202;-51
2023/01/18 05:53:22;;;;;;;13.00;10.33;;;2.30;76.40;;;5.08;54.99;99092.44;4735737;30;20290;-52
2023/01/18 05:55:57;;;;;;;15.10;10.33;;;2.30;75.70;;;5.14;54.93;99107.38;4735389;30;20215;-52
2023/01/18 05:58:26;;;;;;;14.27;9.37;;;2.40;75.90;;;5.19;54.12;99105.84;4718176;30;20238;-54
2023/01/18 06:00:54;;;;;;;14.10;9.67;;;2.40;75.70;;;5.26;54.82;99106.75;4718944;30;20535;-53
2023/01/18 06:03:23;;;;;;;13.93;10.27;;;2.50;75.80;;;5.32;54.51;99113.84;4718372;30;20214;-54
2023/01/18 06:05:52;;;;;;;14.63;10.90;;;2.60;75.30;;;5.33;54.19;99109.41;4717812;30;20236;-50
2023/01/18 06:08:19;;;;;;;12.67;10.37;;;2.60;74.80;;;5.31;53.74;99120.03;4736147;30;20264;-54
2023/01/18 06:10:52;;;;;;;12.27;9.87;;;2.60;74.10;;;5.19;52.71;99126.69;4737024;30;20222;-53
2023/01/18 06:13:20;;;;;;;13.53;10.60;;;2.60;73.40;;;5.14;53.42;99126.44;4738946;30;20572;-54
2023/01/18 06:15:47;;;;;;;12.93;9.80;;;2.60;73.50;;;5.11;54.23;99132.00;4739270;30;20218;-54
2023/01/18 06:18:15;;;;;;;12.57;9.70;;;2.50;73.40;;;5.08;54.17;99129.75;4739770;30;20780;-53
2023/01/18 06:20:42;;;;;;;14.57;10.90;;;2.50;73.70;;;5.06;54.02;99131.75;4739774;30;20722;-54
2023/01/18 06:23:11;;;;;;;12.33;10.03;;;2.40;73.80;;;5.00;53.00;99137.66;4740294;30;20245;-53
2023/01/18 06:25:38;;;;;;;18.10;11.53;;;2.40;73.80;;;4.95;53.74;99134.78;4741103;30;20197;-52
2023/01/18 06:28:05;;;;;;;14.93;12.20;;;2.30;73.80;;;4.89;54.57;99138.09;4739833;30;20225;-51
2023/01/18 06:30:33;;;;;;;15.37;12.63;;;2.30;74.40;;;4.84;54.59;99147.44;4739926;30;20232;-53
2023/01/18 06:33:05;;;;;;;19.13;12.27;;;2.20;74.30;;;4.77;54.21;99152.56;4738951;30;20313;-51
2023/01/18 06:35:32;;;;;;;12.80;10.53;;;2.10;74.60;;;4.72;54.46;99150.47;4737727;30;20227;-52
2023/01/18 06:37:59;;;;;;;12.80;11.20;;;2.10;74.90;;;4.74;54.21;99158.09;4738706;30;20292;-53
2023/01/18 06:40:28;;;;;;;14.07;11.07;;;2.10;75.20;;;4.71;55.24;99168.88;4739907;30;20314;-54
2023/01/18 06:42:55;;;;;;;14.77;11.53;;;2.10;75.10;;;4.67;55.45;99167.63;4739389;30;20195;-53
2023/01/18 06:45:24;;;;;;;16.97;11.07;;;2.00;75.20;;;4.60;55.41;99171.91;4738561;30;20190;-53
2023/01/18 06:47:52;;;;;;;17.00;12.17;;;2.00;75.10;;;4.55;54.52;99175.03;4736959;30;20234;-56
2023/01/18 06:50:20;;;;;;;15.57;11.67;;;2.00;75.30;;;4.49;55.35;99178.31;4739056;30;20708;-53
2023/01/18 06:52:47;;;;;;;15.00;12.40;;;1.90;75.50;;;4.40;55.98;99176.75;4737673;30;20331;-54
2023/01/18 06:55:14;;;;;;;16.87;12.10;;;1.80;75.70;;;4.37;55.42;99186.72;4739477;30;20209;-53
2023/01/18 06:57:53;;;;;;;14.70;11.53;;;1.90;75.80;;;4.35;56.31;99188.72;4752612;30;20230;-52
2023/01/18 07:00:22;;;;;;;16.30;12.13;;;1.80;75.90;;;4.36;55.93;99187.72;4740917;30;20206;-53
2023/01/18 07:02:51;;;;;;;17.40;12.27;;;1.80;76.00;;;4.36;55.43;99191.13;4742050;30;20220;-57
2023/01/18 07:05:19;;;;;;;15.23;10.97;;;1.80;76.10;;;4.33;55.37;99195.84;4739978;30;20269;-55
2023/01/18 07:07:46;;;;;;;17.83;12.57;;;1.80;76.00;;;4.31;56.20;99197.81;4739766;30;20218;-54
2023/01/18 07:10:28;;;;;;;15.87;12.50;;;1.70;76.10;;;4.23;55.62;99210.91;4740458;30;20575;-52
2023/01/18 07:13:01;;;;;;;13.50;11.50;;;1.70;76.20;;;4.17;56.42;99212.41;4742151;30;20536;-53
2023/01/18 07:15:34;;;;;;;17.43;13.33;;;1.70;76.20;;;4.16;56.56;99215.97;4739352;30;20203;-56
2023/01/18 07:18:00;;;;;;;18.27;12.70;;;1.70;76.30;;;4.17;56.39;99216.78;4738249;30;20673;-52
2023/01/18 07:20:28;;;;;;;16.40;11.53;;;1.70;76.20;;;4.19;56.19;99222.63;4739220;30;20203;-54
2023/01/18 07:22:55;;;;;;;16.33;12.60;;;1.70;76.30;;;4.21;56.06;99223.28;4738675;30;20226;-51
2023/01/18 07:25:22;;;;;;;18.07;12.20;;;1.70;76.30;;;4.13;56.30;99221.53;4739559;30;20231;-54
2023/01/18 07:27:50;;;;;;;14.37;12.13;;;1.60;76.30;;;4.14;56.65;99225.75;4738587;30;20221;-54
2023/01/18 07:30:19;;;;;;;19.07;13.60;;;1.60;76.40;;;4.10;56.04;99227.91;4738887;30;20637;-55
2023/01/18 07:32:48;;;;;;;16.07;12.00;;;1.60;76.40;;;4.09;56.04;99236.69;4739289;30;20541;-53
2023/01/18 07:35:18;;;;;;;14.97;11.93;;;1.60;76.50;;;4.10;56.23;99238.31;4738779;30;20206;-53
2023/01/18 07:37:48;;;;;;;16.87;12.77;;;1.60;76.50;;;4.15;55.94;99239.59;4738167;30;20295;-52
2023/01/18 07:40:17;;;;;;;19.47;12.13;;;1.60;76.70;;;4.13;56.14;99237.16;4739121;30;20276;-54
2023/01/18 07:42:45;;;;;;;18.53;12.60;;;1.60;76.70;;;4.13;56.29;99244.16;4738890;30;20225;-55
2023/01/18 07:45:13;;;;;;;19.53;12.73;;;1.60;76.60;;;4.15;56.87;99244.78;4722158;30;20222;-54
2023/01/18 07:47:42;;;;;;;18.53;13.13;;;1.70;76.60;;;4.13;56.60;99251.97;4737629;30;20225;-52
2023/01/18 07:50:10;;;;;;;16.53;12.93;;;1.60;76.50;;;4.10;56.15;99259.13;4738892;30;20241;-52
2023/01/18 07:52:38;;;;;;;20.60;14.13;;;1.60;76.70;;;4.14;56.57;99253.59;4738748;30;20221;-53
2023/01/18 07:55:06;;;;;;;16.97;13.03;;;1.60;76.70;;;4.19;56.48;99256.47;4737883;30;20215;-53
2023/01/18 07:57:33;;;;;;;18.50;13.23;;;1.60;76.90;;;4.26;56.07;99257.41;4720197;30;20701;-52
2023/01/18 08:00:01;;;;;;;22.13;14.37;;;1.60;76.90;;;4.27;56.37;99264.25;4736285;30;20588;-52
2023/01/18 08:02:28;;;;;;;20.73;13.50;;;1.70;77.00;;;4.27;56.61;99274.66;4738314;30;20202;-54
2023/01/18 08:05:00;;;;;;;19.03;13.37;;;1.70;76.80;;;4.32;55.95;99283.59;4739306;30;20207;-52
2023/01/18 08:07:34;;;;;;;21.13;15.30;;;1.70;76.70;;;4.33;56.36;99276.56;4736757;30;20262;-52
2023/01/18 08:10:01;;;;;;;19.03;14.47;;;1.70;76.50;;;4.35;56.54;99285.06;4737919;30;20215;-54
2023/01/18 08:12:29;;;;;;;19.70;13.27;;;1.80;76.60;;;4.34;55.57;99280.81;4723347;30;20294;-52
2023/01/18 08:14:57;;;;;;;20.40;13.27;;;1.80;76.50;;;4.34;56.00;99291.22;4737910;30;20615;-51
2023/01/18 08:17:26;;;;;;;24.63;13.97;;;1.80;76.30;;;4.39;55.76;99289.75;4737763;30;20222;-53
2023/01/18 08:19:53;;;;;;;18.80;13.47;;;1.80;76.30;;;4.43;56.24;99285.81;4738224;30;20234;-53
2023/01/18 08:22:22;;;;;;;17.13;12.33;;;1.90;76.40;;;4.45;55.94;99290.84;4738699;30;20203;-54
2023/01/18 08:24:49;;;;;;;17.63;13.50;;;1.80;76.20;;;4.49;55.67;99297.34;4737623;30;20522;-54
2023/01/18 08:27:17;;;;;;;20.40;14.20;;;1.80;76.10;;;4.49;56.22;99300.75;4736858;30;20235;-56
2023/01/18 08:29:45;;;;;;;16.87;13.90;;;1.90;76.20;;;4.47;55.51;99309.72;4735712;30;20206;-54
2023/01/18 08:32:14;;;;;;;19.90;14.13;;;1.90;76.10;;;4.49;56.10;99307.75;4736058;30;20205;-52
2023/01/18 08:34:42;;;;;;;16.63;13.37;;;1.90;76.10;;;4.53;55.13;99306.44;4719696;30;20210;-55
2023/01/18 08:37:10;;;;;;;15.63;12.90;;;1.90;76.10;;;4.57;56.23;99311.13;4735950;30;20207;-54
2023/01/18 08:39:39;;;;;;;18.57;13.47;;;2.00;76.10;;;4.58;55.93;99317.97;4721251;30;20672;-54
2023/01/18 08:42:14;;;;;;;18.07;13.17;;;2.00;76.00;;;4.69;55.67;99314.97;4736458;30;20207;-53
2023/01/18 08:45:08;;;;;;;17.07;12.57;;;2.00;76.10;;;4.77;55.88;99317.53;4737697;30;20225;-54
2023/01/18 08:47:55;;;;;;;18.50;13.37;;;2.10;76.00;;;4.85;55.10;99327.06;4736516;30;20226;-53
2023/01/18 08:50:45;;;;;;;19.17;13.90;;;2.10;75.80;;;4.96;54.48;99324.06;4692324;30;20674;-52
2023/01/18 08:53:25;;;;;;;17.10;13.40;;;2.20;75.90;;;4.99;53.90;99328.94;4718313;30;20265;-52
2023/01/18 08:56:04;;;;;;;20.47;13.97;;;2.30;75.50;;;4.98;54.63;99326.50;4736441;30;20661;-52
2023/01/18 08:59:18;;;;;;;16.87;12.57;;;2.30;75.10;;;5.04;54.11;99321.41;4735465;30;20230;-52
2023/01/18 09:02:10;;;;;;;18.03;12.90;;;2.30;75.20;;;5.05;54.65;99332.66;4725297;30;20232;-54
2023/01/18 09:04:37;;;;;;;15.87;12.37;;;2.40;74.90;;;5.10;54.67;99332.94;4736974;30;20276;-53
2023/01/18 09:07:08;;;;;;;17.50;13.10;;;2.40;74.90;;;5.13;54.73;99340.41;4732805;30;20616;-52
2023/01/18 09:09:43;;;;;;;15.73;12.30;;;2.40;75.60;;;5.16;54.08;99340.88;4733658;30;20227;-53
2023/01/18 09:12:28;;;;;;;17.07;12.80;;;2.40;74.80;;;5.17;54.26;99342.50;4735264;30;20198;-53
2023/01/18 09:15:13;;;;;;;16.73;12.00;;;2.50;74.80;;;5.32;54.02;99345.16;4732561;30;20215;-51
2023/01/18 09:17:41;;;;;;;17.93;12.07;;;2.50;75.00;;;5.49;54.73;99354.47;4736017;30;20230;-54
2023/01/18 09:20:29;;;;;;;16.57;13.10;;;2.60;75.30;;;5.65;54.03;99362.16;4717022;30;20226;-54
